createdAt,value
2022-08-07T00:00:26.661Z,15.00
2022-08-07T00:02:58.091Z,15.00
2022-08-07T00:05:26.750Z,14.90
2022-08-07T00:08:00.050Z,14.90
2022-08-07T00:10:31.357Z,14.80
2022-08-07T00:13:09.745Z,14.80
2022-08-07T00:15:51.431Z,14.70
2022-08-07T00:18:24.404Z,14.70
2022-08-07T00:21:01.973Z,14.70
2022-08-07T00:23:32.911Z,14.70
2022-08-07T00:26:13.130Z,14.60
2022-08-07T00:28:56.397Z,14.60
2022-08-07T00:31:37.194Z,14.50
2022-08-07T00:34:04.748Z,14.50
2022-08-07T00:36:42.957Z,14.40
2022-08-07T00:39:12.777Z,14.40
2022-08-07T00:42:02.546Z,14.30
2022-08-07T00:44:41.278Z,14.30
2022-08-07T00:47:15.773Z,14.30
2022-08-07T00:50:19.612Z,14.20
2022-08-07T00:52:43.366Z,14.20
2022-08-07T00:55:17.333Z,14.20
2022-08-07T00:57:56.000Z,14.10
2022-08-07T01:00:23.940Z,14.10
2022-08-07T01:02:51.672Z,14.00
2022-08-07T01:05:24.583Z,14.00
2022-08-07T01:07:51.978Z,13.90
2022-08-07T01:10:19.876Z,13.90
2022-08-07T01:12:53.787Z,13.90
2022-08-07T01:16:00.903Z,13.90
2022-08-07T01:18:17.183Z,13.80
2022-08-07T01:20:59.213Z,13.80
2022-08-07T01:23:36.832Z,13.70
2022-08-07T01:26:16.784Z,13.70
2022-08-07T01:28:51.623Z,13.70
2022-08-07T01:31:42.538Z,13.60
2022-08-07T01:34:14.457Z,13.60
2022-08-07T01:36:44.140Z,13.60
2022-08-07T01:39:16.613Z,13.50
2022-08-07T01:41:55.074Z,13.50
2022-08-07T01:44:38.028Z,13.50
2022-08-07T01:47:14.220Z,13.40
2022-08-07T01:49:43.860Z,13.40
2022-08-07T01:52:15.336Z,13.40
2022-08-07T01:54:45.691Z,13.30
2022-08-07T01:57:24.822Z,13.30
2022-08-07T02:00:01.743Z,13.30
2022-08-07T02:03:11.653Z,13.20
2022-08-07T02:06:30.764Z,13.20
2022-08-07T02:08:59.960Z,13.10
2022-08-07T02:12:02.862Z,13.10
2022-08-07T02:14:35.817Z,13.10
2022-08-07T02:17:06.908Z,13.00
2022-08-07T02:20:05.716Z,13.00
2022-08-07T02:22:25.751Z,13.00
2022-08-07T02:24:57.276Z,13.00
2022-08-07T02:27:34.774Z,12.90
2022-08-07T02:30:07.187Z,12.90
2022-08-07T02:32:39.400Z,12.90
2022-08-07T02:36:29.286Z,12.80
2022-08-07T02:38:16.721Z,12.80
2022-08-07T02:40:46.588Z,12.80
2022-08-07T02:43:16.818Z,12.80
2022-08-07T02:45:58.165Z,12.70
2022-08-07T02:48:28.128Z,12.70
2022-08-07T02:51:02.191Z,12.70
2022-08-07T02:53:38.671Z,12.60
2022-08-07T02:56:21.169Z,12.60
2022-08-07T02:58:54.194Z,12.60
2022-08-07T03:01:35.283Z,12.60
2022-08-07T03:04:07.711Z,12.60
2022-08-07T03:06:44.765Z,12.50
2022-08-07T03:09:15.096Z,12.50
2022-08-07T03:12:05.567Z,12.50
2022-08-07T03:14:37.214Z,12.50
2022-08-07T03:17:05.912Z,12.40
2022-08-07T03:19:37.430Z,12.40
2022-08-07T03:22:08.216Z,12.40
2022-08-07T03:24:46.936Z,12.30
2022-08-07T03:27:30.890Z,12.30
2022-08-07T03:30:05.157Z,12.30
2022-08-07T03:32:39.087Z,12.30
2022-08-07T03:35:18.331Z,12.20
2022-08-07T03:37:55.208Z,12.20
2022-08-07T03:40:31.053Z,12.20
2022-08-07T03:43:10.031Z,12.20
2022-08-07T03:45:47.540Z,12.10
2022-08-07T03:48:18.776Z,12.10
2022-08-07T03:50:55.933Z,12.10
2022-08-07T03:54:00.557Z,12.00
2022-08-07T03:56:33.525Z,12.00
2022-08-07T03:59:09.858Z,12.00
2022-08-07T04:01:46.070Z,12.00
2022-08-07T04:04:19.518Z,12.00
2022-08-07T04:06:57.963Z,11.90
2022-08-07T04:09:44.653Z,11.90
2022-08-07T04:12:27.317Z,11.90
2022-08-07T04:15:00.297Z,11.90
2022-08-07T04:18:57.613Z,11.80
2022-08-07T04:20:19.418Z,11.80
2022-08-07T04:22:53.575Z,11.80
2022-08-07T04:25:31.743Z,11.80
2022-08-07T04:28:10.258Z,11.80
2022-08-07T04:30:55.350Z,11.80
2022-08-07T04:33:28.768Z,11.80
2022-08-07T04:35:57.905Z,11.80
2022-08-07T04:38:28.125Z,11.70
2022-08-07T04:40:57.302Z,11.80
2022-08-07T04:44:10.266Z,11.70
2022-08-07T04:47:23.617Z,11.70
2022-08-07T04:50:41.959Z,11.70
2022-08-07T04:54:01.331Z,11.70
2022-08-07T04:58:11.571Z,11.70
2022-08-07T05:00:18.701Z,11.80
2022-08-07T05:03:17.329Z,12.00
2022-08-07T05:06:20.340Z,12.20
2022-08-07T05:09:08.760Z,12.40
2022-08-07T05:11:58.807Z,12.60
2022-08-07T05:14:55.702Z,12.70
2022-08-07T05:17:51.775Z,12.80
2022-08-07T05:20:25.686Z,12.90
2022-08-07T05:23:04.225Z,13.00
2022-08-07T05:26:10.823Z,13.10
2022-08-07T05:28:23.373Z,13.20
2022-08-07T05:30:57.956Z,13.30
2022-08-07T05:33:31.390Z,13.30
2022-08-07T05:36:12.283Z,13.40
2022-08-07T05:38:58.217Z,13.40
2022-08-07T05:42:02.423Z,13.50
2022-08-07T05:44:29.255Z,13.60
2022-08-07T05:47:01.297Z,13.70
2022-08-07T05:49:41.154Z,13.70
2022-08-07T05:52:11.606Z,13.80
2022-08-07T05:54:53.158Z,13.90
2022-08-07T05:57:30.499Z,13.90
2022-08-07T06:00:04.443Z,14.10
2022-08-07T06:02:44.194Z,14.10
2022-08-07T06:05:15.726Z,14.20
2022-08-07T06:08:30.396Z,14.30
2022-08-07T06:10:37.523Z,14.40
2022-08-07T06:13:06.607Z,14.60
2022-08-07T06:15:42.946Z,14.70
2022-08-07T06:18:18.571Z,14.80
2022-08-07T06:20:50.969Z,14.90
2022-08-07T06:24:37.100Z,15.00
2022-08-07T06:26:27.469Z,15.20
2022-08-07T06:28:59.973Z,15.30
2022-08-07T06:31:46.728Z,15.40
2022-08-07T06:34:20.563Z,15.50
2022-08-07T06:36:52.178Z,15.70
2022-08-07T06:40:16.773Z,15.80
2022-08-07T06:42:37.238Z,15.90
2022-08-07T06:45:24.995Z,16.10
2022-08-07T06:48:03.406Z,16.30
2022-08-07T06:50:43.265Z,16.40
2022-08-07T06:53:49.234Z,16.60
2022-08-07T06:56:07.696Z,16.80
2022-08-07T07:00:12.199Z,17.00
2022-08-07T07:01:43.894Z,17.20
2022-08-07T07:04:32.210Z,17.30
2022-08-07T07:07:18.771Z,17.50
2022-08-07T07:09:52.036Z,17.70
2022-08-07T07:12:33.823Z,17.90
2022-08-07T07:15:16.219Z,18.00
2022-08-07T07:18:33.139Z,18.20
2022-08-07T07:22:04.298Z,18.40
2022-08-07T07:24:17.404Z,18.70
2022-08-07T07:26:51.979Z,18.80
2022-08-07T07:29:56.761Z,19.00
2022-08-07T07:32:14.852Z,19.20
2022-08-07T07:34:51.745Z,19.40
2022-08-07T07:37:49.776Z,19.60
2022-08-07T07:40:17.401Z,19.80
2022-08-07T07:42:54.250Z,20.00
2022-08-07T07:46:37.765Z,20.20
2022-08-07T07:48:34.746Z,20.40
2022-08-07T07:51:07.819Z,20.60
2022-08-07T07:53:52.786Z,20.70
2022-08-07T07:56:30.346Z,20.90
2022-08-07T07:59:01.956Z,21.10
2022-08-07T08:02:04.876Z,21.30
2022-08-07T08:04:25.675Z,21.40
2022-08-07T08:06:54.621Z,21.60
2022-08-07T08:09:29.519Z,21.70
2022-08-07T08:12:03.931Z,21.90
2022-08-07T08:14:36.411Z,22.00
2022-08-07T08:17:55.934Z,22.20
2022-08-07T08:20:18.825Z,22.30
2022-08-07T08:23:11.571Z,22.50
2022-08-07T08:26:06.861Z,22.70
2022-08-07T08:28:44.924Z,22.90
2022-08-07T08:31:30.160Z,23.00
2022-08-07T08:34:12.388Z,23.20
2022-08-07T08:36:58.041Z,23.30
2022-08-07T08:39:39.490Z,23.50
2022-08-07T08:42:46.693Z,23.60
2022-08-07T08:45:58.461Z,23.80
2022-08-07T08:48:32.606Z,23.90
2022-08-07T08:52:00.859Z,24.10
2022-08-07T08:54:34.552Z,24.30
2022-08-07T08:57:09.174Z,24.40
2022-08-07T08:59:50.260Z,24.50
2022-08-07T09:02:40.456Z,24.70
2022-08-07T09:05:59.371Z,24.80
2022-08-07T09:09:00.594Z,24.90
2022-08-07T09:12:19.822Z,25.00
2022-08-07T09:16:22.153Z,25.10
2022-08-07T09:18:58.192Z,25.20
2022-08-07T09:21:57.999Z,25.40
2022-08-07T09:24:58.735Z,25.50
2022-08-07T09:28:00.083Z,25.60
2022-08-07T09:30:54.812Z,25.70
2022-08-07T09:34:00.844Z,25.80
2022-08-07T09:36:49.571Z,25.90
2022-08-07T09:39:56.065Z,26.00
2022-08-07T09:42:46.669Z,26.10
2022-08-07T09:47:50.788Z,26.20
2022-08-07T09:50:01.196Z,26.30
2022-08-07T09:52:34.369Z,26.40
2022-08-07T09:55:29.494Z,26.50
2022-08-07T09:58:42.382Z,26.60
2022-08-07T10:01:50.997Z,26.60
2022-08-07T10:04:52.787Z,26.80
2022-08-07T10:07:55.185Z,26.80
2022-08-07T10:11:59.737Z,26.90
2022-08-07T10:14:01.571Z,27.00
2022-08-07T10:16:42.151Z,27.00
2022-08-07T10:19:38.498Z,27.10
2022-08-07T10:22:47.269Z,27.20
2022-08-07T10:26:01.055Z,27.30
2022-08-07T10:29:03.663Z,27.40
2022-08-07T10:32:36.855Z,27.50
2022-08-07T10:35:25.542Z,27.70
2022-08-07T10:38:35.899Z,27.70
2022-08-07T10:41:53.077Z,27.80
2022-08-07T10:44:39.746Z,27.90
2022-08-07T10:47:55.123Z,27.90
2022-08-07T10:50:49.790Z,28.00
2022-08-07T10:53:44.416Z,28.10
2022-08-07T10:56:49.037Z,28.10
2022-08-07T10:59:58.320Z,28.20
2022-08-07T11:02:41.889Z,28.30
2022-08-07T11:05:52.368Z,28.40
2022-08-07T11:08:51.907Z,28.50
2022-08-07T11:11:35.607Z,28.60
2022-08-07T11:14:56.917Z,28.70
2022-08-07T11:17:45.075Z,28.80
2022-08-07T11:20:53.869Z,28.90
2022-08-07T11:23:48.406Z,28.90
2022-08-07T11:26:50.012Z,29.00
2022-08-07T11:29:42.795Z,29.10
2022-08-07T11:32:43.518Z,29.10
2022-08-07T11:35:25.149Z,29.30
2022-08-07T11:38:28.317Z,29.30
2022-08-07T11:41:09.559Z,29.30
2022-08-07T11:44:11.798Z,29.40
2022-08-07T11:46:55.091Z,29.40
2022-08-07T11:50:32.505Z,29.40
2022-08-07T11:53:05.213Z,29.50
2022-08-07T11:56:28.258Z,29.60
2022-08-07T12:00:11.912Z,29.60
2022-08-07T12:03:41.423Z,29.60
2022-08-07T12:06:37.936Z,29.70
2022-08-07T12:09:24.771Z,29.80
2022-08-07T12:12:30.321Z,29.80
2022-08-07T12:15:46.481Z,29.90
2022-08-07T12:18:22.025Z,30.10
2022-08-07T12:21:55.825Z,30.10
2022-08-07T12:26:00.334Z,30.10
2022-08-07T12:28:11.592Z,30.20
2022-08-07T12:30:46.992Z,30.20
2022-08-07T12:33:30.855Z,30.30
2022-08-07T12:36:15.403Z,30.30
2022-08-07T12:38:57.036Z,30.40
2022-08-07T12:41:29.200Z,30.40
2022-08-07T12:44:17.257Z,30.50
2022-08-07T12:46:54.952Z,30.60
2022-08-07T12:49:51.433Z,30.60
2022-08-07T12:52:41.223Z,30.60
2022-08-07T12:55:40.991Z,30.60
2022-08-07T12:58:35.325Z,30.70
2022-08-07T13:01:32.616Z,30.70
2022-08-07T13:04:31.587Z,30.70
2022-08-07T13:08:12.122Z,30.70
2022-08-07T13:11:03.299Z,30.80
2022-08-07T13:13:57.459Z,30.80
2022-08-07T13:16:41.324Z,30.80
2022-08-07T13:19:50.830Z,30.80
2022-08-07T13:22:37.136Z,30.90
2022-08-07T13:25:28.899Z,30.90
2022-08-07T13:28:12.707Z,30.90
2022-08-07T13:31:13.391Z,30.90
2022-08-07T13:34:30.854Z,30.90
2022-08-07T13:37:20.607Z,31.00
2022-08-07T13:40:36.072Z,30.90
2022-08-07T13:43:16.045Z,31.00
2022-08-07T13:46:11.379Z,31.00
2022-08-07T13:48:58.273Z,31.00
2022-08-07T13:52:04.568Z,31.00
2022-08-07T13:54:22.576Z,31.10
2022-08-07T13:56:59.692Z,31.00
2022-08-07T13:59:31.678Z,31.10
2022-08-07T14:02:10.448Z,31.10
2022-08-07T14:05:00.472Z,31.10
2022-08-07T14:08:00.971Z,31.10
2022-08-07T14:10:42.116Z,31.10
2022-08-07T14:13:20.870Z,31.10
2022-08-07T14:16:15.424Z,31.20
2022-08-07T14:18:57.324Z,31.30
2022-08-07T14:22:41.246Z,31.30
2022-08-07T14:24:41.483Z,31.30
2022-08-07T14:28:09.275Z,31.40
2022-08-07T14:30:11.089Z,31.40
2022-08-07T14:32:45.655Z,31.40
2022-08-07T14:35:44.814Z,31.50
2022-08-07T14:38:09.480Z,31.50
2022-08-07T14:41:02.129Z,31.50
2022-08-07T14:43:58.582Z,31.60
2022-08-07T14:46:31.247Z,31.60
2022-08-07T14:49:55.915Z,31.60
2022-08-07T14:52:03.779Z,31.60
2022-08-07T14:54:42.231Z,31.70
2022-08-07T14:57:15.059Z,31.70
2022-08-07T15:00:03.224Z,31.70
2022-08-07T15:02:35.100Z,31.60
2022-08-07T15:05:19.857Z,31.60
2022-08-07T15:07:51.832Z,31.70
2022-08-07T15:10:41.895Z,31.60
2022-08-07T15:13:35.868Z,31.60
2022-08-07T15:16:14.627Z,31.60
2022-08-07T15:18:51.571Z,31.50
2022-08-07T15:25:14.955Z,31.50
2022-08-07T15:27:17.161Z,31.50
2022-08-07T15:30:09.565Z,31.40
2022-08-07T15:33:01.627Z,31.40
2022-08-07T15:36:00.563Z,31.40
2022-08-07T15:38:31.196Z,31.40
2022-08-07T15:41:23.865Z,31.30
2022-08-07T15:44:14.998Z,31.30
2022-08-07T15:46:51.717Z,31.30
2022-08-07T15:52:29.769Z,31.30
2022-08-07T15:55:03.453Z,31.30
2022-08-07T15:57:39.834Z,31.20
2022-08-07T16:00:31.355Z,31.20
2022-08-07T16:03:47.143Z,31.10
2022-08-07T16:06:13.254Z,31.20
2022-08-07T16:08:47.202Z,31.10
2022-08-07T16:12:12.147Z,31.00
2022-08-07T16:15:54.979Z,31.00
2022-08-07T16:18:49.314Z,30.90
2022-08-07T16:22:01.353Z,30.80
2022-08-07T16:24:37.309Z,30.70
2022-08-07T16:27:40.328Z,30.60
2022-08-07T16:30:31.982Z,30.50
2022-08-07T16:34:02.799Z,30.50
2022-08-07T16:37:01.731Z,30.30
2022-08-07T16:40:51.121Z,30.20
2022-08-07T16:44:53.721Z,30.10
2022-08-07T16:47:55.919Z,30.00
2022-08-07T16:51:21.749Z,29.90
2022-08-07T16:54:20.863Z,29.80
2022-08-07T16:58:02.621Z,29.70
2022-08-07T17:00:39.855Z,29.60
2022-08-07T17:03:19.304Z,29.50
2022-08-07T17:06:44.220Z,29.40
2022-08-07T17:10:09.312Z,29.30
2022-08-07T17:14:18.469Z,29.20
2022-08-07T17:16:56.926Z,29.10
2022-08-07T17:20:02.432Z,29.10
2022-08-07T17:22:38.024Z,29.00
2022-08-07T17:25:48.034Z,28.90
2022-08-07T17:28:50.035Z,28.80
2022-08-07T17:31:44.074Z,28.70
2022-08-07T17:34:35.429Z,28.60
2022-08-07T17:38:06.016Z,28.50
2022-08-07T17:42:03.879Z,28.40
2022-08-07T17:44:35.094Z,28.40
2022-08-07T17:47:38.574Z,28.30
2022-08-07T17:50:49.678Z,28.20
2022-08-07T17:54:00.391Z,28.20
2022-08-07T17:56:39.211Z,28.10
2022-08-07T17:59:50.452Z,28.10
2022-08-07T18:02:53.798Z,28.00
2022-08-07T18:06:03.057Z,27.90
2022-08-07T18:09:01.269Z,27.80
2022-08-07T18:12:17.624Z,27.70
2022-08-07T18:14:49.548Z,27.60
2022-08-07T18:19:02.628Z,27.60
2022-08-07T18:21:03.666Z,27.50
2022-08-07T18:23:43.120Z,27.40
2022-08-07T18:26:20.300Z,27.30
2022-08-07T18:30:07.189Z,27.20
2022-08-07T18:32:16.239Z,27.10
2022-08-07T18:35:11.764Z,27.00
2022-08-07T18:38:54.814Z,26.90
2022-08-07T18:41:20.559Z,26.80
2022-08-07T18:45:09.209Z,26.70
2022-08-07T18:50:05.180Z,26.60
2022-08-07T18:52:38.676Z,26.50
2022-08-07T18:54:38.258Z,26.40
2022-08-07T18:57:43.320Z,26.30
2022-08-07T19:00:53.683Z,26.20
2022-08-07T19:03:42.588Z,26.10
2022-08-07T19:06:34.001Z,26.10
2022-08-07T19:09:55.663Z,26.00
2022-08-07T19:12:53.380Z,25.80
2022-08-07T19:16:04.375Z,25.80
2022-08-07T19:18:47.851Z,25.60
2022-08-07T19:21:58.524Z,25.50
2022-08-07T19:24:48.223Z,25.40
2022-08-07T19:28:29.621Z,25.30
2022-08-07T19:30:56.893Z,25.20
2022-08-07T19:33:13.427Z,25.20
2022-08-07T19:36:00.028Z,25.10
2022-08-07T19:38:32.204Z,25.10
2022-08-07T19:41:01.208Z,25.00
2022-08-07T19:43:50.333Z,24.90
2022-08-07T19:46:29.316Z,24.80
2022-08-07T19:49:06.567Z,24.70
2022-08-07T19:51:52.636Z,24.60
2022-08-07T19:54:32.672Z,24.60
2022-08-07T19:58:04.470Z,24.40
2022-08-07T20:00:31.125Z,24.30
2022-08-07T20:03:35.549Z,24.20
2022-08-07T20:06:04.519Z,24.00
2022-08-07T20:08:38.878Z,24.00
2022-08-07T20:11:23.092Z,23.90
2022-08-07T20:14:07.291Z,23.80
2022-08-07T20:16:47.948Z,23.70
2022-08-07T20:19:28.855Z,23.60
2022-08-07T20:22:16.878Z,23.50
2022-08-07T20:25:06.264Z,23.30
2022-08-07T20:27:47.433Z,23.30
2022-08-07T20:30:21.707Z,23.20
2022-08-07T20:32:54.870Z,23.10
2022-08-07T20:35:34.249Z,23.00
2022-08-07T20:38:07.010Z,22.90
2022-08-07T20:40:51.506Z,22.80
2022-08-07T20:43:29.942Z,22.70
2022-08-07T20:46:25.921Z,22.60
2022-08-07T20:49:02.449Z,22.50
2022-08-07T20:51:50.233Z,22.40
2022-08-07T20:54:29.845Z,22.40
2022-08-07T20:57:05.884Z,22.20
2022-08-07T21:00:06.670Z,22.20
2022-08-07T21:02:55.222Z,22.10
2022-08-07T21:05:51.104Z,22.00
2022-08-07T21:08:37.247Z,21.90
2022-08-07T21:11:15.464Z,21.80
2022-08-07T21:14:16.647Z,21.70
2022-08-07T21:18:00.399Z,21.60
2022-08-07T21:19:51.085Z,21.60
2022-08-07T21:22:25.594Z,21.50
2022-08-07T21:25:12.808Z,21.40
2022-08-07T21:28:18.943Z,21.30
2022-08-07T21:31:49.711Z,21.20
2022-08-07T21:34:54.720Z,21.10
2022-08-07T21:38:05.054Z,21.00
2022-08-07T21:40:54.270Z,21.00
2022-08-07T21:43:55.175Z,20.90
2022-08-07T21:46:36.109Z,20.80
2022-08-07T21:50:02.363Z,20.70
2022-08-07T21:52:47.189Z,20.70
2022-08-07T21:55:41.850Z,20.60
2022-08-07T21:58:45.831Z,20.50
2022-08-07T22:02:11.223Z,20.40
2022-08-07T22:04:26.303Z,20.30
2022-08-07T22:07:16.190Z,20.30
2022-08-07T22:09:54.426Z,20.20
2022-08-07T22:12:50.966Z,20.10
2022-08-07T22:16:43.461Z,20.10
2022-08-07T22:19:17.911Z,20.00
2022-08-07T22:22:27.696Z,19.90
2022-08-07T22:25:02.749Z,19.80
2022-08-07T22:28:29.772Z,19.80
2022-08-07T22:30:56.321Z,19.70
2022-08-07T22:33:56.789Z,19.60
2022-08-07T22:36:40.279Z,19.60
2022-08-07T22:39:53.409Z,19.50
2022-08-07T22:42:29.381Z,19.40
2022-08-07T22:45:03.634Z,19.40
2022-08-07T22:48:54.747Z,19.30
2022-08-07T22:51:51.862Z,19.20
2022-08-07T22:54:41.138Z,19.10
2022-08-07T22:57:59.007Z,19.10
2022-08-07T23:00:45.705Z,19.00
2022-08-07T23:03:58.062Z,19.00
2022-08-07T23:07:25.891Z,18.90
2022-08-07T23:10:36.515Z,18.80
2022-08-07T23:13:48.681Z,18.70
2022-08-07T23:17:27.991Z,18.60
2022-08-07T23:20:40.527Z,18.60
2022-08-07T23:24:05.051Z,18.50
2022-08-07T23:26:54.975Z,18.50
2022-08-07T23:30:38.059Z,18.40
2022-08-07T23:34:35.434Z,18.30
2022-08-07T23:36:46.809Z,18.30
2022-08-07T23:40:06.058Z,18.20
2022-08-07T23:43:38.183Z,18.10
2022-08-07T23:46:30.199Z,18.10
2022-08-07T23:49:51.449Z,18.00
2022-08-07T23:53:08.780Z,17.90
2022-08-07T23:55:52.382Z,17.90
2022-08-07T23:59:10.812Z,17.80
